createdAt,value
2018-08-11T00:01:04.698Z,16.90
2018-08-11T00:04:07.927Z,17.00
2018-08-11T00:07:11.218Z,17.00
2018-08-11T00:10:14.425Z,17.00
2018-08-11T00:13:17.741Z,17.00
2018-08-11T00:16:21.066Z,17.00
2018-08-11T00:19:24.489Z,16.90
2018-08-11T00:22:27.778Z,17.00
2018-08-11T00:25:30.998Z,16.90
2018-08-11T00:28:34.189Z,16.80
2018-08-11T00:31:37.603Z,16.80
2018-08-11T00:34:40.806Z,16.90
2018-08-11T00:37:44.647Z,16.80
2018-08-11T00:40:48.070Z,16.80
2018-08-11T00:43:51.373Z,16.70
2018-08-11T00:50:22.005Z,16.60
2018-08-11T00:53:25.172Z,16.50
2018-08-11T00:56:28.261Z,16.50
2018-08-11T00:59:31.461Z,16.50
2018-08-11T01:02:34.782Z,16.40
2018-08-11T01:05:37.949Z,16.40
2018-08-11T01:08:41.184Z,16.40
2018-08-11T01:11:44.346Z,16.40
2018-08-11T01:14:47.588Z,16.30
2018-08-11T01:17:51.447Z,16.30
2018-08-11T01:20:54.696Z,16.20
2018-08-11T01:23:57.961Z,16.20
2018-08-11T01:27:01.621Z,16.10
2018-08-11T01:30:08.050Z,16.00
2018-08-11T01:33:11.325Z,16.00
2018-08-11T01:36:14.610Z,16.00
2018-08-11T01:39:17.839Z,16.00
2018-08-11T01:42:21.045Z,16.00
2018-08-11T01:45:24.210Z,16.00
2018-08-11T01:48:27.514Z,16.00
2018-08-11T01:51:30.793Z,16.00
2018-08-11T01:54:33.873Z,16.00
2018-08-11T01:57:36.953Z,16.00
2018-08-11T02:00:40.037Z,16.00
2018-08-11T02:03:43.101Z,15.90
2018-08-11T02:06:46.156Z,15.90
2018-08-11T02:09:49.227Z,15.90
2018-08-11T02:12:52.272Z,15.90
2018-08-11T02:15:55.332Z,15.80
2018-08-11T02:18:58.417Z,15.70
2018-08-11T02:22:01.486Z,15.80
2018-08-11T02:25:05.729Z,15.60
2018-08-11T02:28:08.825Z,15.60
2018-08-11T02:31:11.897Z,15.60
2018-08-11T02:34:15.121Z,15.50
2018-08-11T02:37:18.121Z,15.40
2018-08-11T02:40:21.184Z,15.50
2018-08-11T02:43:24.265Z,15.50
2018-08-11T02:46:27.397Z,15.40
2018-08-11T02:49:30.474Z,15.40
2018-08-11T02:52:33.521Z,15.50
2018-08-11T02:55:36.599Z,15.50
2018-08-11T02:58:39.737Z,15.60
2018-08-11T03:01:42.814Z,15.60
2018-08-11T03:04:45.873Z,15.70
2018-08-11T03:07:48.958Z,15.80
2018-08-11T03:10:52.048Z,15.90
2018-08-11T03:13:55.259Z,16.00
2018-08-11T03:16:58.209Z,16.00
2018-08-11T03:20:01.290Z,16.00
2018-08-11T03:23:04.378Z,16.10
2018-08-11T03:26:07.441Z,16.10
2018-08-11T03:29:10.528Z,16.10
2018-08-11T03:32:13.575Z,16.10
2018-08-11T03:35:16.654Z,16.10
2018-08-11T03:38:19.732Z,16.20
2018-08-11T03:41:22.805Z,16.20
2018-08-11T03:44:25.868Z,16.20
2018-08-11T03:47:28.938Z,16.20
2018-08-11T03:50:32.007Z,16.20
2018-08-11T03:53:35.068Z,16.20
2018-08-11T03:56:38.117Z,16.20
2018-08-11T03:59:41.237Z,16.30
2018-08-11T04:02:44.304Z,16.30
2018-08-11T04:05:47.404Z,16.30
2018-08-11T04:08:50.497Z,16.30
2018-08-11T04:11:54.521Z,16.40
2018-08-11T04:14:57.601Z,16.40
2018-08-11T04:18:00.669Z,16.50
2018-08-11T04:21:03.725Z,16.50
2018-08-11T04:24:06.992Z,16.50
2018-08-11T04:27:10.054Z,16.50
2018-08-11T04:30:13.125Z,16.60
2018-08-11T04:33:16.188Z,16.60
2018-08-11T04:36:19.265Z,16.60
2018-08-11T04:39:22.338Z,16.60
2018-08-11T04:42:25.417Z,16.60
2018-08-11T04:45:28.491Z,16.70
2018-08-11T04:48:31.557Z,16.60
2018-08-11T04:51:34.626Z,16.70
2018-08-11T04:54:37.703Z,16.70
2018-08-11T04:57:40.745Z,16.70
2018-08-11T05:00:43.892Z,16.90
2018-08-11T05:03:46.885Z,16.90
2018-08-11T05:06:50.013Z,17.00
2018-08-11T05:09:53.081Z,16.90
2018-08-11T05:12:56.149Z,16.80
2018-08-11T05:15:59.224Z,16.90
2018-08-11T05:19:02.319Z,16.90
2018-08-11T05:22:05.383Z,17.00
2018-08-11T05:25:08.453Z,17.00
2018-08-11T05:28:11.517Z,17.00
2018-08-11T05:31:14.577Z,17.10
2018-08-11T05:34:17.625Z,17.10
2018-08-11T05:37:20.690Z,17.20
2018-08-11T05:40:23.768Z,17.20
2018-08-11T05:43:26.857Z,17.20
2018-08-11T05:46:29.923Z,17.10
2018-08-11T05:49:33.762Z,17.00
2018-08-11T05:52:36.824Z,16.90
2018-08-11T05:55:39.950Z,16.90
2018-08-11T05:58:42.996Z,16.90
2018-08-11T06:01:46.212Z,16.90
2018-08-11T06:04:49.281Z,16.90
2018-08-11T06:07:52.361Z,16.80
2018-08-11T06:10:55.465Z,16.60
2018-08-11T06:13:58.528Z,16.50
2018-08-11T06:17:01.593Z,16.30
2018-08-11T06:20:05.884Z,16.20
2018-08-11T06:23:08.958Z,16.20
2018-08-11T06:26:12.057Z,16.20
2018-08-11T06:29:15.453Z,16.30
2018-08-11T06:32:24.586Z,16.70
2018-08-11T06:35:27.674Z,17.60
2018-08-11T06:38:31.634Z,18.60
2018-08-11T06:41:34.736Z,18.90
2018-08-11T06:44:37.788Z,18.50
2018-08-11T06:47:48.792Z,18.00
2018-08-11T06:50:51.904Z,17.70
2018-08-11T06:53:54.957Z,17.60
2018-08-11T06:56:58.037Z,17.90
2018-08-11T07:00:01.153Z,19.40
2018-08-11T07:03:04.261Z,21.20
2018-08-11T07:06:13.480Z,23.40
2018-08-11T07:09:16.560Z,24.70
2018-08-11T07:12:19.777Z,25.50
2018-08-11T07:15:22.891Z,26.40
2018-08-11T07:18:25.941Z,27.80
2018-08-11T07:21:29.083Z,28.90
2018-08-11T07:24:32.066Z,30.10
2018-08-11T07:27:35.141Z,30.40
2018-08-11T07:30:38.197Z,30.60
2018-08-11T07:33:41.277Z,29.90
2018-08-11T07:36:44.375Z,29.40
2018-08-11T07:39:47.510Z,29.10
2018-08-11T07:42:50.609Z,28.10
2018-08-11T07:45:53.692Z,27.40
2018-08-11T07:48:56.775Z,27.60
2018-08-11T07:51:59.840Z,27.80
2018-08-11T07:55:02.909Z,28.30
2018-08-11T07:58:06.310Z,29.10
2018-08-11T08:01:09.374Z,29.50
2018-08-11T08:04:12.433Z,28.20
2018-08-11T08:07:15.511Z,27.40
2018-08-11T08:10:18.584Z,26.50
2018-08-11T08:13:21.653Z,26.50
2018-08-11T08:16:24.741Z,26.30
2018-08-11T08:19:27.812Z,25.90
2018-08-11T08:22:30.942Z,26.00
2018-08-11T08:25:34.000Z,25.90
2018-08-11T08:28:37.060Z,25.20
2018-08-11T08:31:40.125Z,24.00
2018-08-11T08:34:43.201Z,24.30
2018-08-11T08:37:46.273Z,25.00
2018-08-11T08:40:49.355Z,24.50
2018-08-11T08:43:52.463Z,23.70
2018-08-11T08:46:55.556Z,23.80
2018-08-11T08:49:58.633Z,24.60
2018-08-11T08:53:01.703Z,24.40
2018-08-11T08:56:04.908Z,23.20
2018-08-11T08:59:08.028Z,22.00
2018-08-11T09:02:11.057Z,21.10
2018-08-11T09:05:14.115Z,20.50
2018-08-11T09:08:17.177Z,21.30
2018-08-11T09:11:20.253Z,22.40
2018-08-11T09:14:23.329Z,23.20
2018-08-11T09:17:26.520Z,23.50
2018-08-11T09:20:29.590Z,23.20
2018-08-11T09:23:32.626Z,22.30
2018-08-11T09:26:35.705Z,21.40
2018-08-11T09:29:55.175Z,20.60
2018-08-11T09:32:58.239Z,20.40
2018-08-11T09:36:01.421Z,20.50
2018-08-11T09:39:06.820Z,20.50
2018-08-11T09:42:09.885Z,20.70
2018-08-11T09:45:12.974Z,20.80
2018-08-11T09:48:20.210Z,21.00
2018-08-11T09:51:23.264Z,21.10
2018-08-11T09:54:26.352Z,21.40
2018-08-11T09:57:29.425Z,21.80
2018-08-11T10:00:37.994Z,22.10
2018-08-11T10:03:41.072Z,22.00
2018-08-11T10:06:44.148Z,21.70
2018-08-11T10:10:04.907Z,21.60
2018-08-11T10:13:07.989Z,21.40
2018-08-11T10:16:11.061Z,21.60
2018-08-11T10:19:14.139Z,21.60
2018-08-11T10:22:17.307Z,21.50
2018-08-11T10:25:20.503Z,21.50
2018-08-11T10:28:23.685Z,21.40
2018-08-11T10:31:26.885Z,21.40
2018-08-11T10:34:30.257Z,21.40
2018-08-11T10:40:43.338Z,21.60
2018-08-11T10:43:48.781Z,21.70
2018-08-11T10:46:52.094Z,21.90
2018-08-11T10:49:55.365Z,21.90
2018-08-11T10:52:59.398Z,21.70
2018-08-11T10:56:02.622Z,21.60
2018-08-11T10:59:05.824Z,21.30
2018-08-11T11:02:09.045Z,21.10
2018-08-11T11:05:12.270Z,21.10
2018-08-11T11:08:15.498Z,21.00
2018-08-11T11:11:18.634Z,20.80
2018-08-11T11:14:21.925Z,20.70
2018-08-11T11:17:25.062Z,20.60
2018-08-11T11:20:28.253Z,20.60
2018-08-11T11:23:31.545Z,20.60
2018-08-11T11:26:34.739Z,20.70
2018-08-11T11:29:37.922Z,20.80
2018-08-11T11:32:41.122Z,21.00
2018-08-11T11:35:44.326Z,21.20
2018-08-11T11:38:47.521Z,21.20
2018-08-11T11:41:50.711Z,21.30
2018-08-11T11:44:53.890Z,21.10
2018-08-11T11:47:57.522Z,21.10
2018-08-11T11:51:00.717Z,21.00
2018-08-11T11:54:03.937Z,21.10
2018-08-11T11:57:07.573Z,21.10
2018-08-11T12:00:10.685Z,21.10
2018-08-11T12:03:13.740Z,21.20
2018-08-11T12:06:16.850Z,21.10
2018-08-11T12:09:19.925Z,21.00
2018-08-11T12:12:23.019Z,21.20
2018-08-11T12:15:26.081Z,21.10
2018-08-11T12:18:29.147Z,21.20
2018-08-11T12:21:32.215Z,21.30
2018-08-11T12:24:35.264Z,21.20
2018-08-11T12:27:38.353Z,21.20
2018-08-11T12:30:41.416Z,21.30
2018-08-11T12:33:44.460Z,21.30
2018-08-11T12:36:47.529Z,21.20
2018-08-11T12:39:58.445Z,21.10
2018-08-11T12:43:01.509Z,20.90
2018-08-11T12:46:04.577Z,20.90
2018-08-11T12:49:07.656Z,20.90
2018-08-11T12:52:10.730Z,20.90
2018-08-11T12:55:13.793Z,21.00
2018-08-11T12:58:16.865Z,21.00
2018-08-11T13:01:19.949Z,21.10
2018-08-11T13:04:23.023Z,21.10
2018-08-11T13:07:26.099Z,21.10
2018-08-11T13:10:29.145Z,21.10
2018-08-11T13:13:32.206Z,21.10
2018-08-11T13:16:35.481Z,21.00
2018-08-11T13:19:38.689Z,20.90
2018-08-11T13:22:41.914Z,20.90
2018-08-11T13:25:45.130Z,20.90
2018-08-11T13:28:48.386Z,21.20
2018-08-11T13:31:51.630Z,21.40
2018-08-11T13:34:54.897Z,21.40
2018-08-11T13:37:58.213Z,21.30
2018-08-11T13:41:01.415Z,21.30
2018-08-11T13:44:04.602Z,21.50
2018-08-11T13:47:07.805Z,21.60
2018-08-11T13:50:10.900Z,21.50
2018-08-11T13:53:13.950Z,21.50
2018-08-11T13:56:17.012Z,21.50
2018-08-11T13:59:20.081Z,21.60
2018-08-11T14:02:23.145Z,21.50
2018-08-11T14:05:26.223Z,21.20
2018-08-11T14:08:29.277Z,21.10
2018-08-11T14:11:32.329Z,21.20
2018-08-11T14:14:36.121Z,21.30
2018-08-11T14:17:39.213Z,21.20
2018-08-11T14:20:42.292Z,21.10
2018-08-11T14:23:45.342Z,21.00
2018-08-11T14:26:48.409Z,21.00
2018-08-11T14:29:51.463Z,21.10
2018-08-11T14:32:54.520Z,21.10
2018-08-11T14:35:57.584Z,21.20
2018-08-11T14:39:00.645Z,21.10
2018-08-11T14:42:03.724Z,20.90
2018-08-11T14:45:08.681Z,21.00
2018-08-11T14:48:11.796Z,21.00
2018-08-11T14:51:14.868Z,21.00
2018-08-11T14:54:17.941Z,21.10
2018-08-11T14:57:21.029Z,21.10
2018-08-11T15:00:24.113Z,21.10
2018-08-11T15:03:27.185Z,21.10
2018-08-11T15:06:30.269Z,21.00
2018-08-11T15:09:33.336Z,21.00
2018-08-11T15:12:36.422Z,20.90
2018-08-11T15:15:39.460Z,20.90
2018-08-11T15:18:42.525Z,20.70
2018-08-11T15:21:45.594Z,20.50
2018-08-11T15:24:48.640Z,20.40
2018-08-11T15:27:51.714Z,20.40
2018-08-11T15:30:54.773Z,20.40
2018-08-11T15:33:57.837Z,20.60
2018-08-11T15:37:00.913Z,20.70
2018-08-11T15:40:04.581Z,20.90
2018-08-11T15:43:07.656Z,20.90
2018-08-11T15:46:10.704Z,20.90
2018-08-11T15:49:13.781Z,20.80
2018-08-11T15:52:16.849Z,20.70
2018-08-11T15:55:19.917Z,20.70
2018-08-11T15:58:23.028Z,20.70
2018-08-11T16:01:26.145Z,20.60
2018-08-11T16:04:29.218Z,20.40
2018-08-11T16:07:32.308Z,20.30
2018-08-11T16:10:35.405Z,20.20
2018-08-11T16:13:38.452Z,20.20
2018-08-11T16:16:41.538Z,20.30
2018-08-11T16:19:44.593Z,20.40
2018-08-11T16:22:47.673Z,20.50
2018-08-11T16:25:50.801Z,20.50
2018-08-11T16:28:53.860Z,20.60
2018-08-11T16:31:57.007Z,20.60
2018-08-11T16:35:00.029Z,20.60
2018-08-11T16:38:03.113Z,20.60
2018-08-11T16:41:06.612Z,20.50
2018-08-11T16:44:09.657Z,20.50
2018-08-11T16:47:12.765Z,20.40
2018-08-11T16:50:15.859Z,20.30
2018-08-11T16:53:18.936Z,20.30
2018-08-11T16:56:22.047Z,20.40
2018-08-11T16:59:26.092Z,20.40
2018-08-11T17:02:29.117Z,20.30
2018-08-11T17:05:32.194Z,20.30
2018-08-11T17:08:35.269Z,20.20
2018-08-11T17:11:38.400Z,20.20
2018-08-11T17:14:41.521Z,20.10
2018-08-11T17:17:44.600Z,20.10
2018-08-11T17:20:47.722Z,20.00
2018-08-11T17:23:50.785Z,20.00
2018-08-11T17:26:53.867Z,19.90
2018-08-11T17:29:56.933Z,19.90
2018-08-11T17:32:59.990Z,19.80
2018-08-11T17:36:03.057Z,19.80
2018-08-11T17:39:07.599Z,19.70
2018-08-11T17:42:10.640Z,19.70
2018-08-11T17:45:13.717Z,19.70
2018-08-11T17:48:16.781Z,19.70
2018-08-11T17:51:19.844Z,19.60
2018-08-11T17:54:22.960Z,19.50
2018-08-11T17:57:26.033Z,19.40
2018-08-11T18:00:29.144Z,19.40
2018-08-11T18:03:32.219Z,19.30
2018-08-11T18:06:35.281Z,19.20
2018-08-11T18:09:38.358Z,19.20
2018-08-11T18:12:41.440Z,19.10
2018-08-11T18:15:44.508Z,19.00
2018-08-11T18:18:47.593Z,19.00
2018-08-11T18:21:50.665Z,18.90
2018-08-11T18:24:53.747Z,18.80
2018-08-11T18:27:56.821Z,18.70
2018-08-11T18:30:59.881Z,18.60
2018-08-11T18:34:02.951Z,18.50
2018-08-11T18:37:06.158Z,18.50
2018-08-11T18:40:09.240Z,18.40
2018-08-11T18:43:12.627Z,18.30
2018-08-11T18:46:15.633Z,18.20
2018-08-11T18:49:18.729Z,18.10
2018-08-11T18:52:21.821Z,18.00
2018-08-11T18:55:24.861Z,17.90
2018-08-11T18:58:27.940Z,17.90
2018-08-11T19:01:31.008Z,17.80
2018-08-11T19:04:34.092Z,17.60
2018-08-11T19:07:37.247Z,17.60
2018-08-11T19:10:45.953Z,17.50
2018-08-11T19:13:49.108Z,17.40
2018-08-11T19:16:52.174Z,17.30
2018-08-11T19:19:55.374Z,17.30
2018-08-11T19:22:58.300Z,17.20
2018-08-11T19:26:01.394Z,17.20
2018-08-11T19:29:04.446Z,17.10
2018-08-11T19:32:07.501Z,17.10
2018-08-11T19:35:10.573Z,17.00
2018-08-11T19:38:13.655Z,17.00
2018-08-11T19:41:16.714Z,17.00
2018-08-11T19:44:19.797Z,16.90
2018-08-11T19:47:22.857Z,16.90
2018-08-11T19:50:25.924Z,16.80
2018-08-11T19:53:29.002Z,16.80
2018-08-11T19:56:32.185Z,16.80
2018-08-11T19:59:53.562Z,16.70
2018-08-11T20:02:56.629Z,16.70
2018-08-11T20:05:59.708Z,16.60
2018-08-11T20:09:02.788Z,16.60
2018-08-11T20:12:05.973Z,16.50
2018-08-11T20:15:09.898Z,16.50
2018-08-11T20:18:12.953Z,16.40
2018-08-11T20:21:16.045Z,16.40
2018-08-11T20:24:19.126Z,16.40
2018-08-11T20:27:22.201Z,16.30
2018-08-11T20:30:25.292Z,16.30
2018-08-11T20:33:28.427Z,16.20
2018-08-11T20:36:31.501Z,16.30
2018-08-11T20:39:34.576Z,16.20
2018-08-11T20:42:37.653Z,16.20
2018-08-11T20:45:40.710Z,16.20
2018-08-11T20:48:43.768Z,16.10
2018-08-11T20:51:46.846Z,16.10
2018-08-11T20:54:49.938Z,16.10
2018-08-11T20:57:53.018Z,16.00
2018-08-11T21:00:56.126Z,15.90
2018-08-11T21:03:59.186Z,16.00
2018-08-11T21:07:02.272Z,15.90
2018-08-11T21:10:07.233Z,15.90
2018-08-11T21:13:10.294Z,15.90
2018-08-11T21:16:13.364Z,15.80
2018-08-11T21:19:16.428Z,15.80
2018-08-11T21:22:19.505Z,15.70
2018-08-11T21:25:22.570Z,15.80
2018-08-11T21:28:25.645Z,15.70
2018-08-11T21:31:28.721Z,15.80
2018-08-11T21:34:33.793Z,15.80
2018-08-11T21:37:36.868Z,15.70
2018-08-11T21:40:39.927Z,15.70
2018-08-11T21:43:43.533Z,15.60
2018-08-11T21:46:46.609Z,15.60
2018-08-11T21:49:49.673Z,15.50
2018-08-11T21:52:52.749Z,15.50
2018-08-11T21:55:55.833Z,15.50
2018-08-11T21:58:58.894Z,15.40
2018-08-11T22:02:02.012Z,15.50
2018-08-11T22:05:05.097Z,15.50
2018-08-11T22:08:08.218Z,15.40
2018-08-11T22:11:11.309Z,15.30
2018-08-11T22:14:14.353Z,15.30
2018-08-11T22:17:17.421Z,15.30
2018-08-11T22:20:20.626Z,15.10
2018-08-11T22:23:23.705Z,15.00
2018-08-11T22:26:26.773Z,14.90
2018-08-11T22:29:29.849Z,14.80
2018-08-11T22:32:32.941Z,14.70
2018-08-11T22:35:36.009Z,14.60
2018-08-11T22:38:39.085Z,14.60
2018-08-11T22:41:42.149Z,14.60
2018-08-11T22:44:45.201Z,14.60
2018-08-11T22:47:48.296Z,14.60
2018-08-11T22:50:51.337Z,14.50
2018-08-11T22:53:54.404Z,14.50
2018-08-11T22:56:57.486Z,14.50
2018-08-11T23:00:00.573Z,14.60
2018-08-11T23:03:03.979Z,14.50
2018-08-11T23:06:07.077Z,14.60
2018-08-11T23:09:10.161Z,14.60
2018-08-11T23:12:13.289Z,14.50
2018-08-11T23:15:17.829Z,14.40
2018-08-11T23:18:20.913Z,14.40
2018-08-11T23:21:24.005Z,14.30
2018-08-11T23:24:27.072Z,14.30
2018-08-11T23:27:30.138Z,14.30
2018-08-11T23:30:33.229Z,14.30
2018-08-11T23:33:36.337Z,14.30
2018-08-11T23:36:57.982Z,14.30
2018-08-11T23:40:01.041Z,14.40
2018-08-11T23:43:04.158Z,14.50
2018-08-11T23:46:07.211Z,14.50
2018-08-11T23:49:10.280Z,14.50
2018-08-11T23:52:13.333Z,14.50
2018-08-11T23:55:16.392Z,14.40
2018-08-11T23:58:19.502Z,14.40
